createdAt,value
2023-11-12T00:00:11.135Z,94766.91
2023-11-12T00:02:41.043Z,94769.28
2023-11-12T00:05:13.294Z,94769.56
2023-11-12T00:07:42.617Z,94780.94
2023-11-12T00:10:13.570Z,94779.38
2023-11-12T00:12:42.415Z,94775.50
2023-11-12T00:15:11.667Z,94776.41
2023-11-12T00:17:43.298Z,94786.06
2023-11-12T00:20:14.380Z,94771.25
2023-11-12T00:22:45.410Z,94769.53
2023-11-12T00:25:15.173Z,94787.44
2023-11-12T00:27:43.803Z,94772.19
2023-11-12T00:30:12.920Z,94778.63
2023-11-12T00:32:42.831Z,94785.59
2023-11-12T00:35:13.529Z,94782.31
2023-11-12T00:37:42.011Z,94786.09
2023-11-12T00:40:12.380Z,94788.88
2023-11-12T00:42:40.844Z,94787.47
2023-11-12T00:45:10.767Z,94793.31
2023-11-12T00:47:39.202Z,94788.38
2023-11-12T00:50:11.298Z,94799.34
2023-11-12T00:52:39.775Z,94787.09
2023-11-12T00:55:08.816Z,94777.75
2023-11-12T00:57:37.391Z,94795.44
2023-11-12T01:00:07.280Z,94792.50
2023-11-12T01:02:35.821Z,94797.59
2023-11-12T01:05:04.624Z,94796.00
2023-11-12T01:07:34.447Z,94803.28
2023-11-12T01:10:03.010Z,94793.28
2023-11-12T01:12:31.638Z,94788.06
2023-11-12T01:15:00.202Z,94789.78
2023-11-12T01:17:29.178Z,94784.03
2023-11-12T01:19:57.867Z,94800.22
2023-11-12T01:22:26.330Z,94802.13
2023-11-12T01:24:56.221Z,94798.50
2023-11-12T01:27:24.850Z,94809.47
2023-11-12T01:29:53.282Z,94807.50
2023-11-12T01:32:21.776Z,94813.50
2023-11-12T01:34:50.243Z,94809.00
2023-11-12T01:37:18.719Z,94808.78
2023-11-12T01:39:48.396Z,94790.28
2023-11-12T01:42:18.217Z,94801.50
2023-11-12T01:44:46.784Z,94810.81
2023-11-12T01:47:18.288Z,94768.72
2023-11-12T01:49:46.869Z,94817.59
2023-11-12T01:52:18.998Z,94813.28
2023-11-12T01:54:47.560Z,94825.03
2023-11-12T01:57:17.567Z,94829.69
2023-11-12T01:59:46.069Z,94825.25
2023-11-12T02:02:15.080Z,94825.75
2023-11-12T02:04:44.395Z,94826.25
2023-11-12T02:07:13.913Z,94823.28
2023-11-12T02:09:42.566Z,94829.34
2023-11-12T02:12:11.555Z,94837.41
2023-11-12T02:14:41.601Z,94837.00
2023-11-12T02:17:10.027Z,94828.53
2023-11-12T02:19:38.495Z,94841.75
2023-11-12T02:22:06.982Z,94842.53
2023-11-12T02:24:36.967Z,94839.31
2023-11-12T02:27:05.447Z,94814.16
2023-11-12T02:29:33.875Z,94842.44
2023-11-12T02:32:02.382Z,94851.44
2023-11-12T02:34:31.293Z,94842.66
2023-11-12T02:36:59.676Z,94841.56
2023-11-12T02:39:28.147Z,94850.88
2023-11-12T02:42:00.110Z,94841.19
2023-11-12T02:44:28.495Z,94837.16
2023-11-12T02:46:56.920Z,94842.66
2023-11-12T02:49:43.897Z,94835.47
2023-11-12T02:52:12.434Z,94846.56
2023-11-12T02:54:40.918Z,94844.47
2023-11-12T02:57:11.741Z,94849.22
2023-11-12T02:59:40.850Z,94853.16
2023-11-12T03:02:09.292Z,94856.72
2023-11-12T03:04:37.718Z,94858.84
2023-11-12T03:07:06.420Z,94859.13
2023-11-12T03:09:35.321Z,94858.63
2023-11-12T03:12:04.265Z,94843.53
2023-11-12T03:14:34.871Z,94862.03
2023-11-12T03:17:03.223Z,94868.91
2023-11-12T03:19:31.655Z,94878.94
2023-11-12T03:22:00.183Z,94882.09
2023-11-12T03:24:28.684Z,94873.88
2023-11-12T03:26:57.049Z,94879.97
2023-11-12T03:29:25.512Z,94881.59
2023-11-12T03:31:56.352Z,94891.16
2023-11-12T03:34:26.143Z,94855.28
2023-11-12T03:36:54.701Z,94882.72
2023-11-12T03:39:24.107Z,94881.16
2023-11-12T03:41:53.206Z,94883.00
2023-11-12T03:44:21.662Z,94890.63
2023-11-12T03:46:50.153Z,94890.66
2023-11-12T03:49:20.513Z,94885.66
2023-11-12T03:51:49.223Z,94887.97
2023-11-12T03:54:17.916Z,94888.41
2023-11-12T03:56:46.317Z,94891.13
2023-11-12T03:59:14.736Z,94894.28
2023-11-12T04:01:43.072Z,94895.31
2023-11-12T04:04:11.657Z,94889.56
2023-11-12T04:06:41.559Z,94887.78
2023-11-12T04:09:10.290Z,94876.91
2023-11-12T04:11:41.664Z,94879.81
2023-11-12T04:14:10.672Z,94896.44
2023-11-12T04:16:39.207Z,94860.03
2023-11-12T04:19:08.844Z,94896.47
2023-11-12T04:21:37.758Z,94855.03
2023-11-12T04:24:09.285Z,94884.34
2023-11-12T04:26:37.847Z,94890.09
2023-11-12T04:29:08.620Z,94889.06
2023-11-12T04:31:37.963Z,94895.09
2023-11-12T04:34:06.672Z,94900.91
2023-11-12T04:36:37.212Z,94910.38
2023-11-12T04:39:07.293Z,94910.88
2023-11-12T04:41:37.464Z,94910.72
2023-11-12T04:44:06.739Z,94898.56
2023-11-12T04:46:35.156Z,94914.63
2023-11-12T04:49:03.626Z,94916.22
2023-11-12T04:51:34.155Z,94908.84
2023-11-12T04:54:03.835Z,94926.03
2023-11-12T04:56:32.276Z,94921.00
2023-11-12T04:59:02.116Z,94912.84
2023-11-12T05:01:31.812Z,94931.84
2023-11-12T05:04:00.503Z,94939.78
2023-11-12T05:06:30.997Z,94927.09
2023-11-12T05:08:59.668Z,94943.16
2023-11-12T05:11:28.245Z,94934.69
2023-11-12T05:13:56.934Z,94922.31
2023-11-12T05:16:26.783Z,94944.56
2023-11-12T05:18:55.337Z,94944.78
2023-11-12T05:21:23.850Z,94919.44
2023-11-12T05:23:52.273Z,94940.25
2023-11-12T05:26:20.655Z,94906.44
2023-11-12T05:28:49.289Z,94964.53
2023-11-12T05:31:17.819Z,94971.94
2023-11-12T05:33:47.758Z,94984.13
2023-11-12T05:36:16.134Z,94988.84
2023-11-12T05:38:44.447Z,94995.25
2023-11-12T05:41:13.063Z,95011.78
2023-11-12T05:43:41.457Z,95010.50
2023-11-12T05:46:10.215Z,95003.16
2023-11-12T05:48:38.703Z,95016.09
2023-11-12T05:51:10.527Z,95018.22
2023-11-12T05:53:39.430Z,95016.38
2023-11-12T05:56:08.805Z,95030.13
2023-11-12T05:58:37.154Z,95034.88
2023-11-12T06:01:05.848Z,95033.78
2023-11-12T06:03:34.332Z,95033.94
2023-11-12T06:06:02.838Z,95029.78
2023-11-12T06:08:32.823Z,95032.28
2023-11-12T06:11:02.729Z,95031.75
2023-11-12T06:13:31.065Z,95036.44
2023-11-12T06:15:59.886Z,95034.56
2023-11-12T06:18:28.816Z,94973.88
2023-11-12T06:20:57.283Z,95038.56
2023-11-12T06:23:26.146Z,95045.94
2023-11-12T06:25:56.039Z,95050.53
2023-11-12T06:28:24.747Z,95042.16
2023-11-12T06:30:55.293Z,95048.06
2023-11-12T06:33:23.921Z,95047.81
2023-11-12T06:35:52.880Z,95050.41
2023-11-12T06:38:21.347Z,95052.69
2023-11-12T06:40:49.888Z,95052.22
2023-11-12T06:43:19.618Z,95059.03
2023-11-12T06:45:48.169Z,95060.44
2023-11-12T06:48:17.824Z,95063.72
2023-11-12T06:50:46.292Z,95064.16
2023-11-12T06:53:14.831Z,95065.50
2023-11-12T06:55:43.429Z,95074.00
2023-11-12T06:58:12.007Z,95065.59
2023-11-12T07:00:42.963Z,95035.88
2023-11-12T07:03:11.761Z,95072.72
2023-11-12T07:05:40.306Z,95065.56
2023-11-12T07:08:09.511Z,95058.28
2023-11-12T07:10:39.257Z,95078.59
2023-11-12T07:13:07.696Z,95075.88
2023-11-12T07:15:36.256Z,95080.84
2023-11-12T07:18:06.377Z,95079.13
2023-11-12T07:20:34.906Z,95081.22
2023-11-12T07:23:03.478Z,95077.38
2023-11-12T07:25:32.187Z,95086.38
2023-11-12T07:28:00.823Z,95085.66
2023-11-12T07:30:29.318Z,95107.25
2023-11-12T07:32:57.960Z,95097.97
2023-11-12T07:35:28.195Z,95093.47
2023-11-12T07:37:56.677Z,94994.94
2023-11-12T07:40:27.635Z,95077.38
2023-11-12T07:42:56.666Z,95088.88
2023-11-12T07:45:31.695Z,95084.09
2023-11-12T07:48:03.276Z,95091.59
2023-11-12T07:50:33.330Z,95082.38
2023-11-12T07:53:01.742Z,95043.41
2023-11-12T07:55:32.784Z,95024.75
2023-11-12T07:58:01.902Z,95082.88
2023-11-12T08:00:30.398Z,95080.81
2023-11-12T08:02:59.978Z,95078.50
2023-11-12T08:05:28.526Z,95077.19
2023-11-12T08:07:58.392Z,95048.75
2023-11-12T08:10:26.765Z,95086.34
2023-11-12T08:12:55.193Z,95075.78
2023-11-12T08:15:23.820Z,95083.31
2023-11-12T08:17:52.271Z,95082.88
2023-11-12T08:20:20.711Z,95080.91
2023-11-12T08:22:49.080Z,95078.31
2023-11-12T08:25:18.927Z,95073.41
2023-11-12T08:27:47.488Z,95075.97
2023-11-12T08:30:16.410Z,95071.72
2023-11-12T08:32:44.963Z,95101.16
2023-11-12T08:35:14.103Z,95097.44
2023-11-12T08:37:43.395Z,95076.16
2023-11-12T08:40:13.063Z,95040.97
2023-11-12T08:42:42.974Z,95084.06
2023-11-12T08:45:11.710Z,95076.69
2023-11-12T08:47:40.197Z,95089.44
2023-11-12T08:50:09.473Z,95104.09
2023-11-12T08:52:39.520Z,95085.00
2023-11-12T08:55:08.905Z,95104.13
2023-11-12T08:57:37.460Z,95105.06
2023-11-12T09:00:09.488Z,95057.06
2023-11-12T09:02:38.113Z,95062.97
2023-11-12T09:05:07.261Z,95097.59
2023-11-12T09:07:35.933Z,95094.88
2023-11-12T09:10:05.953Z,95087.88
2023-11-12T09:12:34.931Z,95065.66
2023-11-12T09:15:03.679Z,95075.66
2023-11-12T09:17:33.684Z,95071.75
2023-11-12T09:20:02.169Z,95069.69
2023-11-12T09:22:30.798Z,95061.25
2023-11-12T09:25:08.859Z,95058.22
2023-11-12T09:27:40.310Z,95067.66
2023-11-12T09:30:10.532Z,95079.59
2023-11-12T09:32:40.711Z,95071.41
2023-11-12T09:35:10.721Z,95060.06
2023-11-12T09:37:39.224Z,95057.75
2023-11-12T09:40:11.565Z,95060.44
2023-11-12T09:42:42.890Z,95042.50
2023-11-12T09:45:12.373Z,95044.78
2023-11-12T09:47:50.398Z,95054.66
2023-11-12T09:50:21.726Z,95044.16
2023-11-12T09:52:51.273Z,95052.97
2023-11-12T09:55:21.142Z,95042.69
2023-11-12T09:57:52.860Z,95039.84
2023-11-12T10:00:21.643Z,95023.34
2023-11-12T10:02:53.533Z,95024.88
2023-11-12T10:05:22.828Z,95032.91
2023-11-12T10:07:51.287Z,94991.22
2023-11-12T10:10:23.748Z,95027.22
2023-11-12T10:12:53.781Z,95034.38
2023-11-12T10:15:26.608Z,95032.81
2023-11-12T10:18:01.022Z,94953.53
2023-11-12T10:20:32.626Z,95024.41
2023-11-12T10:23:03.210Z,95025.81
2023-11-12T10:25:41.598Z,95014.97
2023-11-12T10:28:11.988Z,95015.47
2023-11-12T10:30:40.984Z,95003.00
2023-11-12T10:33:25.245Z,95018.97
2023-11-12T10:35:56.031Z,95024.19
2023-11-12T10:38:25.213Z,95015.28
2023-11-12T10:41:02.184Z,95009.22
2023-11-12T10:43:31.826Z,94996.50
2023-11-12T10:46:01.888Z,94992.38
2023-11-12T10:48:35.317Z,94994.38
2023-11-12T10:51:07.099Z,94969.81
2023-11-12T10:53:37.585Z,94976.41
2023-11-12T10:56:08.078Z,94973.16
2023-11-12T10:58:37.450Z,94965.47
2023-11-12T11:01:08.931Z,94784.41
2023-11-12T11:03:39.163Z,94964.97
2023-11-12T11:06:09.774Z,94906.72
2023-11-12T11:08:38.236Z,94970.81
2023-11-12T11:11:11.486Z,94919.13
2023-11-12T11:13:40.860Z,94966.34
2023-11-12T11:16:11.380Z,94741.47
2023-11-12T11:19:05.119Z,94952.41
2023-11-12T11:21:33.602Z,94952.75
2023-11-12T11:24:03.632Z,94960.44
2023-11-12T11:26:40.364Z,94946.97
2023-11-12T11:29:15.220Z,94961.84
2023-11-12T11:32:18.763Z,94950.56
2023-11-12T11:34:49.832Z,94954.44
2023-11-12T11:37:20.991Z,94960.84
2023-11-12T11:39:49.986Z,94958.38
2023-11-12T11:42:19.007Z,94954.25
2023-11-12T11:44:51.589Z,94956.75
2023-11-12T11:47:24.647Z,94959.09
2023-11-12T11:50:45.962Z,94967.97
2023-11-12T11:53:16.501Z,94957.59
2023-11-12T11:55:50.436Z,94960.47
2023-11-12T11:58:22.613Z,94966.59
2023-11-12T12:01:01.441Z,94974.13
2023-11-12T12:03:30.681Z,94920.19
2023-11-12T12:06:00.800Z,94938.59
2023-11-12T12:08:29.565Z,94942.72
2023-11-12T12:10:58.040Z,94936.91
2023-11-12T12:13:28.161Z,94963.25
2023-11-12T12:15:57.220Z,94960.41
2023-11-12T12:18:26.655Z,94955.69
2023-11-12T12:20:57.168Z,94958.66
2023-11-12T12:23:27.514Z,94945.59
2023-11-12T12:25:57.030Z,94968.78
2023-11-12T12:28:31.641Z,94960.91
2023-11-12T12:31:00.450Z,94963.72
2023-11-12T12:33:28.934Z,94959.09
2023-11-12T12:36:00.052Z,94959.09
2023-11-12T12:38:29.965Z,94965.09
2023-11-12T12:41:03.651Z,94973.78
2023-11-12T12:43:46.893Z,94988.31
2023-11-12T12:46:15.493Z,94987.75
2023-11-12T12:48:54.080Z,94990.88
2023-11-12T12:51:23.123Z,94989.69
2023-11-12T12:53:54.037Z,94993.19
2023-11-12T12:56:23.108Z,94994.03
2023-11-12T12:58:51.611Z,94992.28
2023-11-12T13:01:20.252Z,94993.38
2023-11-12T13:03:49.795Z,95004.72
2023-11-12T13:06:18.743Z,95002.91
2023-11-12T13:08:48.983Z,95000.56
2023-11-12T13:11:20.748Z,94922.69
2023-11-12T13:13:51.468Z,94995.06
2023-11-12T13:16:21.003Z,94953.63
2023-11-12T13:18:49.708Z,94996.16
2023-11-12T13:21:20.536Z,94997.47
2023-11-12T13:23:50.626Z,95017.03
2023-11-12T13:26:22.652Z,95011.16
2023-11-12T13:28:53.442Z,95016.63
2023-11-12T13:31:24.987Z,95008.53
2023-11-12T13:33:53.614Z,94936.22
2023-11-12T13:36:22.169Z,95015.31
2023-11-12T13:38:50.566Z,95015.94
2023-11-12T13:41:23.120Z,95010.91
2023-11-12T13:43:53.055Z,95007.44
2023-11-12T13:46:23.162Z,94999.88
2023-11-12T13:48:54.699Z,94939.53
2023-11-12T13:51:25.741Z,94927.88
2023-11-12T13:53:55.041Z,94974.16
2023-11-12T13:56:25.675Z,94986.81
2023-11-12T13:58:56.184Z,94988.16
2023-11-12T14:01:25.742Z,94990.97
2023-11-12T14:03:54.431Z,94994.31
2023-11-12T14:06:23.238Z,94994.34
2023-11-12T14:08:52.895Z,94998.72
2023-11-12T14:11:22.242Z,94997.72
2023-11-12T14:13:52.456Z,94967.94
2023-11-12T14:16:24.656Z,94966.09
2023-11-12T14:18:54.886Z,94893.13
2023-11-12T14:21:23.900Z,94911.78
2023-11-12T14:23:52.344Z,94968.59
2023-11-12T14:26:21.307Z,94942.28
2023-11-12T14:28:53.908Z,94932.72
2023-11-12T14:31:23.905Z,94990.13
2023-11-12T14:33:52.512Z,94983.16
2023-11-12T14:36:20.937Z,94983.75
2023-11-12T14:38:49.769Z,94987.88
2023-11-12T14:41:20.047Z,94979.97
2023-11-12T14:43:49.513Z,94967.59
2023-11-12T14:46:21.073Z,94963.25
2023-11-12T14:48:51.127Z,94971.78
2023-11-12T14:51:19.740Z,94971.13
2023-11-12T14:53:57.174Z,94931.91
2023-11-12T14:56:32.583Z,94978.75
2023-11-12T14:59:01.091Z,94978.34
2023-11-12T15:01:29.506Z,94973.16
2023-11-12T15:03:59.676Z,94980.72
2023-11-12T15:06:28.647Z,94975.66
2023-11-12T15:08:57.944Z,94991.66
2023-11-12T15:11:26.342Z,94990.47
2023-11-12T15:13:54.740Z,94988.19
2023-11-12T15:16:26.783Z,94992.94
2023-11-12T15:18:55.382Z,94954.22
2023-11-12T15:21:25.536Z,94991.78
2023-11-12T15:23:54.576Z,94995.34
2023-11-12T15:26:22.938Z,95005.59
2023-11-12T15:28:52.205Z,95009.56
2023-11-12T15:31:20.929Z,95005.03
2023-11-12T15:33:49.637Z,95013.69
2023-11-12T15:36:18.148Z,95007.19
2023-11-12T15:38:48.037Z,95018.44
2023-11-12T15:41:16.510Z,95008.81
2023-11-12T15:43:44.842Z,95028.31
2023-11-12T15:46:14.102Z,95033.56
2023-11-12T15:48:42.992Z,95039.00
2023-11-12T15:51:11.451Z,95038.84
2023-11-12T15:53:39.814Z,95044.28
2023-11-12T15:56:10.530Z,95042.84
2023-11-12T15:58:39.012Z,95047.59
2023-11-12T16:01:08.055Z,95051.25
2023-11-12T16:03:38.183Z,95045.34
2023-11-12T16:06:07.244Z,95047.34
2023-11-12T16:08:37.755Z,95044.38
2023-11-12T16:11:07.242Z,95043.53
2023-11-12T16:13:37.169Z,95047.34
2023-11-12T16:16:07.083Z,95049.38
2023-11-12T16:18:35.632Z,95046.88
2023-11-12T16:21:06.459Z,95039.59
2023-11-12T16:23:34.816Z,95033.13
2023-11-12T16:26:03.236Z,95037.41
2023-11-12T16:28:31.848Z,95040.50
2023-11-12T16:31:05.148Z,95040.09
2023-11-12T16:33:33.792Z,95032.72
2023-11-12T16:36:02.176Z,95047.13
2023-11-12T16:38:32.565Z,95050.19
2023-11-12T16:41:00.940Z,95026.19
2023-11-12T16:43:29.332Z,95048.84
2023-11-12T16:45:59.495Z,95045.06
2023-11-12T16:48:29.530Z,95033.44
2023-11-12T16:50:58.070Z,95027.91
2023-11-12T16:53:26.517Z,95043.78
2023-11-12T16:55:55.475Z,95052.56
2023-11-12T16:58:23.937Z,95044.47
2023-11-12T17:00:53.089Z,95049.91
2023-11-12T17:03:23.167Z,95044.59
2023-11-12T17:05:53.142Z,95016.75
2023-11-12T17:08:21.552Z,95036.97
2023-11-12T17:10:49.879Z,95027.75
2023-11-12T17:13:18.429Z,95040.09
2023-11-12T17:15:46.835Z,95042.63
2023-11-12T17:18:16.339Z,95047.84
2023-11-12T17:20:45.085Z,95050.47
2023-11-12T17:23:15.021Z,95042.50
2023-11-12T17:25:43.447Z,95049.59
2023-11-12T17:28:12.419Z,95051.69
2023-11-12T17:30:40.811Z,95040.03
2023-11-12T17:33:09.281Z,95048.94
2023-11-12T17:35:40.170Z,95054.34
2023-11-12T17:38:08.742Z,95054.03
2023-11-12T17:40:38.665Z,95043.38
2023-11-12T17:43:07.094Z,95050.00
2023-11-12T17:45:35.567Z,95055.41
2023-11-12T17:48:05.073Z,95051.59
2023-11-12T17:50:34.268Z,95047.53
2023-11-12T17:53:02.749Z,95051.38
2023-11-12T17:55:31.276Z,95017.75
2023-11-12T17:58:01.240Z,95063.72
2023-11-12T18:00:30.586Z,95067.16
2023-11-12T18:02:59.209Z,95054.94
2023-11-12T18:05:27.925Z,95067.59
2023-11-12T18:07:56.514Z,95071.09
2023-11-12T18:10:24.979Z,95064.47
2023-11-12T18:12:53.385Z,95058.53
2023-11-12T18:15:23.224Z,95080.53
2023-11-12T18:17:51.765Z,95082.22
2023-11-12T18:20:20.692Z,95076.31
2023-11-12T18:22:49.176Z,95071.28
2023-11-12T18:25:18.066Z,95077.88
2023-11-12T18:27:46.639Z,95081.44
2023-11-12T18:30:16.777Z,95089.81
2023-11-12T18:32:46.610Z,95090.63
2023-11-12T18:35:15.310Z,95098.69
2023-11-12T18:37:43.690Z,95098.84
2023-11-12T18:40:17.017Z,95096.31
2023-11-12T18:42:45.897Z,95106.47
2023-11-12T18:45:17.638Z,95099.63
2023-11-12T18:47:48.199Z,95105.88
2023-11-12T18:50:19.406Z,95112.94
2023-11-12T18:52:48.428Z,95114.13
2023-11-12T18:55:17.066Z,95111.44
2023-11-12T18:57:46.382Z,95105.06
2023-11-12T19:00:16.475Z,95104.78
2023-11-12T19:02:45.005Z,95102.03
2023-11-12T19:05:15.067Z,95110.66
2023-11-12T19:07:44.944Z,95107.44
2023-11-12T19:10:13.476Z,95109.59
2023-11-12T19:12:42.995Z,95104.25
2023-11-12T19:15:13.563Z,95097.34
2023-11-12T19:17:45.317Z,95103.75
2023-11-12T19:20:16.714Z,95113.31
2023-11-12T19:22:45.858Z,95102.63
2023-11-12T19:25:16.208Z,95101.94
2023-11-12T19:27:45.717Z,95104.28
2023-11-12T19:30:16.448Z,95109.94
2023-11-12T19:32:46.467Z,95101.53
2023-11-12T19:35:19.975Z,95109.38
2023-11-12T19:37:48.464Z,95132.03
2023-11-12T19:40:19.142Z,95127.00
2023-11-12T19:42:50.294Z,95120.88
2023-11-12T19:45:20.740Z,95123.03
2023-11-12T19:47:53.465Z,95124.66
2023-11-12T19:50:24.543Z,95125.97
2023-11-12T19:52:53.163Z,95136.56
2023-11-12T19:55:22.578Z,95133.25
2023-11-12T19:57:53.972Z,95127.50
2023-11-12T20:00:23.494Z,95131.53
2023-11-12T20:02:52.966Z,95137.38
2023-11-12T20:05:23.365Z,95142.13
2023-11-12T20:07:52.098Z,95148.00
2023-11-12T20:10:20.924Z,95150.84
2023-11-12T20:12:51.087Z,95141.88
2023-11-12T20:15:20.614Z,95143.19
2023-11-12T20:17:49.598Z,95145.91
2023-11-12T20:20:18.012Z,95147.72
2023-11-12T20:22:47.925Z,95155.94
2023-11-12T20:25:16.609Z,95144.78
2023-11-12T20:27:46.258Z,95140.38
2023-11-12T20:30:16.443Z,95147.84
2023-11-12T20:32:45.213Z,95147.84
2023-11-12T20:35:13.945Z,95146.75
2023-11-12T20:37:44.702Z,95148.03
2023-11-12T20:40:15.486Z,95150.31
2023-11-12T20:42:44.504Z,95145.25
2023-11-12T20:45:18.548Z,95115.63
2023-11-12T20:47:52.260Z,95141.13
2023-11-12T20:50:21.187Z,95139.03
2023-11-12T20:52:50.501Z,95145.53
2023-11-12T20:55:20.494Z,95145.66
2023-11-12T20:57:51.105Z,95131.88
2023-11-12T21:00:22.635Z,95137.88
2023-11-12T21:02:52.725Z,95131.75
2023-11-12T21:05:22.154Z,95128.38
2023-11-12T21:07:50.998Z,95128.13
2023-11-12T21:10:22.744Z,95136.59
2023-11-12T21:12:51.499Z,95142.75
2023-11-12T21:15:20.177Z,95144.09
2023-11-12T21:17:48.733Z,95141.38
2023-11-12T21:20:18.437Z,95145.88
2023-11-12T21:22:46.932Z,95146.63
2023-11-12T21:25:18.427Z,95143.97
2023-11-12T21:27:48.743Z,95144.19
2023-11-12T21:30:22.605Z,95147.50
2023-11-12T21:32:51.195Z,95149.91
2023-11-12T21:35:21.099Z,95152.06
2023-11-12T21:37:49.687Z,95143.19
2023-11-12T21:40:18.955Z,95142.63
2023-11-12T21:42:48.910Z,95127.69
2023-11-12T21:45:17.511Z,95138.72
2023-11-12T21:47:47.054Z,95135.34
2023-11-12T21:50:17.245Z,95138.38
2023-11-12T21:52:46.142Z,95143.19
2023-11-12T21:55:14.873Z,95138.16
2023-11-12T21:57:44.006Z,95140.56
2023-11-12T22:00:15.882Z,95143.84
2023-11-12T22:02:44.431Z,95145.47
2023-11-12T22:05:13.693Z,95136.84
2023-11-12T22:07:42.478Z,95137.31
2023-11-12T22:10:13.410Z,95139.63
2023-11-12T22:12:42.173Z,95130.69
2023-11-12T22:15:14.902Z,95123.47
2023-11-12T22:17:48.725Z,95137.06
2023-11-12T22:20:18.620Z,95136.72
2023-11-12T22:22:48.536Z,95102.22
2023-11-12T22:25:17.827Z,95129.84
2023-11-12T22:27:47.823Z,95134.56
2023-11-12T22:30:17.386Z,95117.16
2023-11-12T22:32:50.047Z,95130.63
2023-11-12T22:35:19.238Z,95127.38
2023-11-12T22:37:48.494Z,95136.13
2023-11-12T22:40:19.060Z,95126.69
2023-11-12T22:42:47.659Z,95132.72
2023-11-12T22:45:16.843Z,95133.00
2023-11-12T22:47:48.366Z,95130.66
2023-11-12T22:50:18.797Z,95121.38
2023-11-12T22:52:47.434Z,95116.88
2023-11-12T22:55:16.366Z,95125.63
2023-11-12T22:57:45.339Z,95119.28
2023-11-12T23:02:58.903Z,95113.63
2023-11-12T23:05:27.500Z,95093.06
2023-11-12T23:07:55.834Z,95087.75
2023-11-12T23:10:25.180Z,95098.22
2023-11-12T23:12:53.766Z,95094.88
2023-11-12T23:15:22.638Z,95081.41
2023-11-12T23:17:51.137Z,95073.31
2023-11-12T23:20:22.804Z,95072.06
2023-11-12T23:22:51.325Z,95071.63
2023-11-12T23:25:20.610Z,95065.75
2023-11-12T23:27:49.681Z,95060.50
2023-11-12T23:30:18.606Z,95067.41
2023-11-12T23:32:47.113Z,95065.72
2023-11-12T23:35:15.947Z,95073.16
2023-11-12T23:37:45.783Z,95080.25
2023-11-12T23:40:16.256Z,95075.84
2023-11-12T23:42:44.691Z,95084.06
2023-11-12T23:45:13.374Z,95079.09
2023-11-12T23:47:42.191Z,95075.31
2023-11-12T23:50:11.606Z,95072.06
2023-11-12T23:52:39.998Z,95072.06
2023-11-12T23:55:11.525Z,95085.28
2023-11-12T23:57:41.905Z,95082.63
